<?xml version="1.0" encoding="UTF-8" standalone="no" ?>
<gpx xmlns="http://www.topografix.com/GPX/1/1" xmlns:xsi="http://www.w3.org/2001/XMLSchema-instance" xsi:schemaLocation="http://www.topografix.com/GPX/1/1 http://www.topografix.com/GPX/1/1/gpx.xsd" version="1.1" creator="VisuGPX - https://www.visugpx.com">
  <metadata>
    <name>sejour gov alsace</name>
  </metadata>
  <wpt lat="48.06424" lon="7.02221">
    <ele>1132</ele>
    <name><![CDATA[Col de la Schlucht]]></name>
    <desc><![CDATA[Parking]]></desc>
    <cmt><![CDATA[Parking]]></cmt>
  </wpt>
  <wpt lat="48.04158" lon="7.29947">
    <ele>223</ele>
    <name><![CDATA[Eguisheim]]></name>
  </wpt>
  <wpt lat="48.1793" lon="7.31018">
    <ele>275</ele>
    <name><![CDATA[Hunawihr]]></name>
  </wpt>
  <wpt lat="48.13923" lon="7.25933">
    <ele>251</ele>
    <name><![CDATA[Kaysersberg]]></name>
  </wpt>
  <wpt lat="48.14587" lon="7.25086">
    <ele>290</ele>
    <name><![CDATA[Kaysersberg-CCAS]]></name>
    <desc><![CDATA[3 Rue Rene le Guen]]></desc>
    <cmt><![CDATA[3 Rue Rene le Guen]]></cmt>
  </wpt>
  <wpt lat="48.14668" lon="7.25549">
    <ele>261</ele>
    <name><![CDATA[Kaysersberg-Salle de Sport]]></name>
  </wpt>
  <wpt lat="48.11261" lon="7.10019">
    <ele>958</ele>
    <name><![CDATA[Lac Noir]]></name>
  </wpt>
  <wpt lat="48.17" lon="7.12576">
    <ele>667</ele>
    <name><![CDATA[Le Bonhomme]]></name>
  </wpt>
  <wpt lat="48.05292" lon="6.9482">
    <ele>918</ele>
    <name><![CDATA[Lispach]]></name>
  </wpt>
  <wpt lat="48.16758" lon="7.29424">
    <ele>321</ele>
    <name><![CDATA[Riquewihr]]></name>
  </wpt>
  <wpt lat="48.23274" lon="7.36606">
    <ele>254</ele>
    <name><![CDATA[St-Hippolyte]]></name>
  </wpt>
  <wpt lat="48.22694" lon="7.30439">
    <ele>466</ele>
    <name><![CDATA[Thannenkirch]]></name>
  </wpt>
  <trk>
    <name><![CDATA[Lac Noir-Lac Blanc-Lac du Forlet-Lac Vert (17,0 km-750 m)]]></name>
    <trkseg>
      <trkpt lat="48.11272" lon="7.09993">
        <ele>959</ele>
        <time>2021-12-19T15:46:58Z</time>
      </trkpt>
      <trkpt lat="48.11218" lon="7.10002">
        <ele>965</ele>
        <time>2021-12-19T15:47:03Z</time>
      </trkpt>
      <trkpt lat="48.11197" lon="7.09996">
        <ele>972</ele>
        <time>2021-12-19T15:47:08Z</time>
      </trkpt>
      <trkpt lat="48.11138" lon="7.09921">
        <ele>978</ele>
        <time>2021-12-19T15:47:13Z</time>
      </trkpt>
      <trkpt lat="48.11086" lon="7.09837">
        <ele>990</ele>
        <time>2021-12-19T15:47:18Z</time>
      </trkpt>
      <trkpt lat="48.11056" lon="7.09777">
        <ele>996</ele>
        <time>2021-12-19T15:47:23Z</time>
      </trkpt>
      <trkpt lat="48.11037" lon="7.09715">
        <ele>1003</ele>
        <time>2021-12-19T15:47:28Z</time>
      </trkpt>
      <trkpt lat="48.11023" lon="7.09697">
        <ele>1009</ele>
        <time>2021-12-19T15:47:33Z</time>
      </trkpt>
      <trkpt lat="48.11004" lon="7.09696">
        <ele>1018</ele>
        <time>2021-12-19T15:47:38Z</time>
      </trkpt>
      <trkpt lat="48.10978" lon="7.0963">
        <ele>1027</ele>
        <time>2021-12-19T15:47:43Z</time>
      </trkpt>
      <trkpt lat="48.10954" lon="7.0963">
        <ele>1033</ele>
        <time>2021-12-19T15:47:48Z</time>
      </trkpt>
      <trkpt lat="48.10954" lon="7.09598">
        <ele>1036</ele>
        <time>2021-12-19T15:47:53Z</time>
      </trkpt>
      <trkpt lat="48.10929" lon="7.09598">
        <ele>1044</ele>
        <time>2021-12-19T15:47:58Z</time>
      </trkpt>
      <trkpt lat="48.10923" lon="7.09569">
        <ele>1051</ele>
        <time>2021-12-19T15:48:03Z</time>
      </trkpt>
      <trkpt lat="48.10974" lon="7.09423">
        <ele>1067</ele>
        <time>2021-12-19T15:48:08Z</time>
      </trkpt>
      <trkpt lat="48.1089" lon="7.09501">
        <ele>1075</ele>
        <time>2021-12-19T15:48:13Z</time>
      </trkpt>
      <trkpt lat="48.10858" lon="7.09506">
        <ele>1081</ele>
        <time>2021-12-19T15:48:18Z</time>
      </trkpt>
      <trkpt lat="48.10743" lon="7.0947">
        <ele>1102</ele>
        <time>2021-12-19T15:48:23Z</time>
      </trkpt>
      <trkpt lat="48.10672" lon="7.09442">
        <ele>1111</ele>
        <time>2021-12-19T15:48:28Z</time>
      </trkpt>
      <trkpt lat="48.10607" lon="7.09433">
        <ele>1118</ele>
        <time>2021-12-19T15:48:33Z</time>
      </trkpt>
      <trkpt lat="48.10535" lon="7.09399">
        <ele>1126</ele>
        <time>2021-12-19T15:48:38Z</time>
      </trkpt>
      <trkpt lat="48.10456" lon="7.09375">
        <ele>1130</ele>
        <time>2021-12-19T15:48:43Z</time>
      </trkpt>
      <trkpt lat="48.10418" lon="7.09364">
        <ele>1132</ele>
        <time>2021-12-19T15:48:48Z</time>
      </trkpt>
      <trkpt lat="48.10375" lon="7.09374">
        <ele>1126</ele>
        <time>2021-12-19T15:48:53Z</time>
      </trkpt>
      <trkpt lat="48.10357" lon="7.09387">
        <ele>1123</ele>
        <time>2021-12-19T15:48:58Z</time>
      </trkpt>
      <trkpt lat="48.10294" lon="7.09309">
        <ele>1117</ele>
        <time>2021-12-19T15:49:03Z</time>
      </trkpt>
      <trkpt lat="48.10252" lon="7.09239">
        <ele>1116</ele>
        <time>2021-12-19T15:49:08Z</time>
      </trkpt>
      <trkpt lat="48.10221" lon="7.09173">
        <ele>1114</ele>
        <time>2021-12-19T15:49:13Z</time>
      </trkpt>
      <trkpt lat="48.10214" lon="7.0908">
        <ele>1112</ele>
        <time>2021-12-19T15:49:18Z</time>
      </trkpt>
      <trkpt lat="48.10233" lon="7.08937">
        <ele>1115</ele>
        <time>2021-12-19T15:49:23Z</time>
      </trkpt>
      <trkpt lat="48.10243" lon="7.0876">
        <ele>1112</ele>
        <time>2021-12-19T15:49:28Z</time>
      </trkpt>
      <trkpt lat="48.10245" lon="7.08709">
        <ele>1110</ele>
        <time>2021-12-19T15:49:33Z</time>
      </trkpt>
      <trkpt lat="48.10258" lon="7.08669">
        <ele>1113</ele>
        <time>2021-12-19T15:49:38Z</time>
      </trkpt>
      <trkpt lat="48.10251" lon="7.08561">
        <ele>1107</ele>
        <time>2021-12-19T15:49:43Z</time>
      </trkpt>
      <trkpt lat="48.10265" lon="7.08415">
        <ele>1103</ele>
        <time>2021-12-19T15:49:48Z</time>
      </trkpt>
      <trkpt lat="48.10265" lon="7.08354">
        <ele>1104</ele>
        <time>2021-12-19T15:49:53Z</time>
      </trkpt>
      <trkpt lat="48.1026" lon="7.08191">
        <ele>1100</ele>
        <time>2021-12-19T15:49:58Z</time>
      </trkpt>
      <trkpt lat="48.10275" lon="7.08119">
        <ele>1096</ele>
        <time>2021-12-19T15:50:03Z</time>
      </trkpt>
      <trkpt lat="48.10277" lon="7.08068">
        <ele>1090</ele>
        <time>2021-12-19T15:50:08Z</time>
      </trkpt>
      <trkpt lat="48.10278" lon="7.08031">
        <ele>1086</ele>
        <time>2021-12-19T15:50:13Z</time>
      </trkpt>
      <trkpt lat="48.10268" lon="7.07998">
        <ele>1078</ele>
        <time>2021-12-19T15:50:18Z</time>
      </trkpt>
      <trkpt lat="48.10269" lon="7.07959">
        <ele>1074</ele>
        <time>2021-12-19T15:50:23Z</time>
      </trkpt>
      <trkpt lat="48.10276" lon="7.07924">
        <ele>1073</ele>
        <time>2021-12-19T15:50:28Z</time>
      </trkpt>
      <trkpt lat="48.1025" lon="7.07891">
        <ele>1066</ele>
        <time>2021-12-19T15:50:33Z</time>
      </trkpt>
      <trkpt lat="48.10212" lon="7.07868">
        <ele>1068</ele>
        <time>2021-12-19T15:50:38Z</time>
      </trkpt>
      <trkpt lat="48.10186" lon="7.07841">
        <ele>1073</ele>
        <time>2021-12-19T15:50:43Z</time>
      </trkpt>
      <trkpt lat="48.10151" lon="7.07829">
        <ele>1079</ele>
        <time>2021-12-19T15:50:48Z</time>
      </trkpt>
      <trkpt lat="48.10162" lon="7.078">
        <ele>1081</ele>
        <time>2021-12-19T15:50:53Z</time>
      </trkpt>
      <trkpt lat="48.10158" lon="7.07788">
        <ele>1083</ele>
        <time>2021-12-19T15:50:58Z</time>
      </trkpt>
      <trkpt lat="48.10161" lon="7.07764">
        <ele>1085</ele>
        <time>2021-12-19T15:51:03Z</time>
      </trkpt>
      <trkpt lat="48.10161" lon="7.07749">
        <ele>1087</ele>
        <time>2021-12-19T15:51:08Z</time>
      </trkpt>
      <trkpt lat="48.10158" lon="7.07716">
        <ele>1089</ele>
        <time>2021-12-19T15:51:13Z</time>
      </trkpt>
      <trkpt lat="48.10146" lon="7.07687">
        <ele>1095</ele>
        <time>2021-12-19T15:51:18Z</time>
      </trkpt>
      <trkpt lat="48.10133" lon="7.07699">
        <ele>1099</ele>
        <time>2021-12-19T15:51:23Z</time>
      </trkpt>
      <trkpt lat="48.10113" lon="7.07691">
        <ele>1106</ele>
        <time>2021-12-19T15:51:28Z</time>
      </trkpt>
      <trkpt lat="48.10115" lon="7.07664">
        <ele>1108</ele>
        <time>2021-12-19T15:51:33Z</time>
      </trkpt>
      <trkpt lat="48.10101" lon="7.07646">
        <ele>1113</ele>
        <time>2021-12-19T15:51:38Z</time>
      </trkpt>
      <trkpt lat="48.10075" lon="7.07679">
        <ele>1121</ele>
        <time>2021-12-19T15:51:43Z</time>
      </trkpt>
      <trkpt lat="48.10044" lon="7.07706">
        <ele>1125</ele>
        <time>2021-12-19T15:51:48Z</time>
      </trkpt>
      <trkpt lat="48.10002" lon="7.07734">
        <ele>1131</ele>
        <time>2021-12-19T15:51:53Z</time>
      </trkpt>
      <trkpt lat="48.09975" lon="7.07729">
        <ele>1133</ele>
        <time>2021-12-19T15:51:58Z</time>
      </trkpt>
      <trkpt lat="48.09944" lon="7.07711">
        <ele>1138</ele>
        <time>2021-12-19T15:52:03Z</time>
      </trkpt>
      <trkpt lat="48.09885" lon="7.07693">
        <ele>1139</ele>
        <time>2021-12-19T15:52:08Z</time>
      </trkpt>
      <trkpt lat="48.09862" lon="7.0767">
        <ele>1141</ele>
        <time>2021-12-19T15:52:13Z</time>
      </trkpt>
      <trkpt lat="48.0983" lon="7.07628">
        <ele>1146</ele>
        <time>2021-12-19T15:52:18Z</time>
      </trkpt>
      <trkpt lat="48.09792" lon="7.07608">
        <ele>1145</ele>
        <time>2021-12-19T15:52:23Z</time>
      </trkpt>
      <trkpt lat="48.09739" lon="7.0761">
        <ele>1137</ele>
        <time>2021-12-19T15:52:28Z</time>
      </trkpt>
      <trkpt lat="48.09679" lon="7.07603">
        <ele>1132</ele>
        <time>2021-12-19T15:52:33Z</time>
      </trkpt>
      <trkpt lat="48.09624" lon="7.07561">
        <ele>1131</ele>
        <time>2021-12-19T15:52:38Z</time>
      </trkpt>
      <trkpt lat="48.09587" lon="7.07526">
        <ele>1131</ele>
        <time>2021-12-19T15:52:43Z</time>
      </trkpt>
      <trkpt lat="48.09546" lon="7.07428">
        <ele>1130</ele>
        <time>2021-12-19T15:52:48Z</time>
      </trkpt>
      <trkpt lat="48.09541" lon="7.07385">
        <ele>1135</ele>
        <time>2021-12-19T15:52:53Z</time>
      </trkpt>
      <trkpt lat="48.09529" lon="7.07333">
        <ele>1139</ele>
        <time>2021-12-19T15:52:58Z</time>
      </trkpt>
      <trkpt lat="48.09507" lon="7.07272">
        <ele>1142</ele>
        <time>2021-12-19T15:53:03Z</time>
      </trkpt>
      <trkpt lat="48.09478" lon="7.07232">
        <ele>1139</ele>
        <time>2021-12-19T15:53:08Z</time>
      </trkpt>
      <trkpt lat="48.09445" lon="7.07158">
        <ele>1141</ele>
        <time>2021-12-19T15:53:13Z</time>
      </trkpt>
      <trkpt lat="48.09412" lon="7.0707">
        <ele>1148</ele>
        <time>2021-12-19T15:53:18Z</time>
      </trkpt>
      <trkpt lat="48.09406" lon="7.07051">
        <ele>1150</ele>
        <time>2021-12-19T15:53:23Z</time>
      </trkpt>
      <trkpt lat="48.09406" lon="7.07024">
        <ele>1157</ele>
        <time>2021-12-19T15:53:28Z</time>
      </trkpt>
      <trkpt lat="48.09396" lon="7.06999">
        <ele>1161</ele>
        <time>2021-12-19T15:53:33Z</time>
      </trkpt>
      <trkpt lat="48.09388" lon="7.06985">
        <ele>1163</ele>
        <time>2021-12-19T15:53:38Z</time>
      </trkpt>
      <trkpt lat="48.09372" lon="7.06978">
        <ele>1161</ele>
        <time>2021-12-19T15:53:43Z</time>
      </trkpt>
      <trkpt lat="48.09365" lon="7.06959">
        <ele>1166</ele>
        <time>2021-12-19T15:53:48Z</time>
      </trkpt>
      <trkpt lat="48.09348" lon="7.06928">
        <ele>1173</ele>
        <time>2021-12-19T15:53:53Z</time>
      </trkpt>
      <trkpt lat="48.09311" lon="7.06925">
        <ele>1169</ele>
        <time>2021-12-19T15:53:58Z</time>
      </trkpt>
      <trkpt lat="48.09285" lon="7.06917">
        <ele>1171</ele>
        <time>2021-12-19T15:54:03Z</time>
      </trkpt>
      <trkpt lat="48.09277" lon="7.06909">
        <ele>1173</ele>
        <time>2021-12-19T15:54:08Z</time>
      </trkpt>
      <trkpt lat="48.09247" lon="7.06904">
        <ele>1172</ele>
        <time>2021-12-19T15:54:13Z</time>
      </trkpt>
      <trkpt lat="48.09234" lon="7.06915">
        <ele>1168</ele>
        <time>2021-12-19T15:54:18Z</time>
      </trkpt>
      <trkpt lat="48.09217" lon="7.06915">
        <ele>1166</ele>
        <time>2021-12-19T15:54:23Z</time>
      </trkpt>
      <trkpt lat="48.09172" lon="7.06919">
        <ele>1160</ele>
        <time>2021-12-19T15:54:28Z</time>
      </trkpt>
      <trkpt lat="48.09143" lon="7.06899">
        <ele>1156</ele>
        <time>2021-12-19T15:54:33Z</time>
      </trkpt>
      <trkpt lat="48.09098" lon="7.06901">
        <ele>1146</ele>
        <time>2021-12-19T15:54:38Z</time>
      </trkpt>
      <trkpt lat="48.09036" lon="7.06885">
        <ele>1132</ele>
        <time>2021-12-19T15:54:43Z</time>
      </trkpt>
      <trkpt lat="48.08922" lon="7.06869">
        <ele>1108</ele>
        <time>2021-12-19T15:54:48Z</time>
      </trkpt>
      <trkpt lat="48.08909" lon="7.06883">
        <ele>1105</ele>
        <time>2021-12-19T15:54:53Z</time>
      </trkpt>
      <trkpt lat="48.08893" lon="7.0688">
        <ele>1102</ele>
        <time>2021-12-19T15:54:58Z</time>
      </trkpt>
      <trkpt lat="48.08895" lon="7.06855">
        <ele>1102</ele>
        <time>2021-12-19T15:55:03Z</time>
      </trkpt>
      <trkpt lat="48.08883" lon="7.06835">
        <ele>1099</ele>
        <time>2021-12-19T15:55:08Z</time>
      </trkpt>
      <trkpt lat="48.08864" lon="7.06819">
        <ele>1095</ele>
        <time>2021-12-19T15:55:13Z</time>
      </trkpt>
      <trkpt lat="48.08831" lon="7.06807">
        <ele>1088</ele>
        <time>2021-12-19T15:55:18Z</time>
      </trkpt>
      <trkpt lat="48.08778" lon="7.06734">
        <ele>1078</ele>
        <time>2021-12-19T15:55:23Z</time>
      </trkpt>
      <trkpt lat="48.08769" lon="7.06705">
        <ele>1077</ele>
        <time>2021-12-19T15:55:28Z</time>
      </trkpt>
      <trkpt lat="48.08749" lon="7.0668">
        <ele>1074</ele>
        <time>2021-12-19T15:55:33Z</time>
      </trkpt>
      <trkpt lat="48.08747" lon="7.06653">
        <ele>1074</ele>
        <time>2021-12-19T15:55:38Z</time>
      </trkpt>
      <trkpt lat="48.08757" lon="7.0663">
        <ele>1073</ele>
        <time>2021-12-19T15:55:43Z</time>
      </trkpt>
      <trkpt lat="48.08784" lon="7.06607">
        <ele>1074</ele>
        <time>2021-12-19T15:55:48Z</time>
      </trkpt>
      <trkpt lat="48.08795" lon="7.0659">
        <ele>1072</ele>
        <time>2021-12-19T15:55:53Z</time>
      </trkpt>
      <trkpt lat="48.08776" lon="7.06573">
        <ele>1070</ele>
        <time>2021-12-19T15:55:58Z</time>
      </trkpt>
      <trkpt lat="48.08821" lon="7.06587">
        <ele>1073</ele>
        <time>2021-12-19T15:56:03Z</time>
      </trkpt>
      <trkpt lat="48.0885" lon="7.06594">
        <ele>1075</ele>
        <time>2021-12-19T15:56:08Z</time>
      </trkpt>
      <trkpt lat="48.08902" lon="7.06598">
        <ele>1077</ele>
        <time>2021-12-19T15:56:13Z</time>
      </trkpt>
      <trkpt lat="48.08953" lon="7.06593">
        <ele>1080</ele>
        <time>2021-12-19T15:56:18Z</time>
      </trkpt>
      <trkpt lat="48.08981" lon="7.0658">
        <ele>1080</ele>
        <time>2021-12-19T15:56:23Z</time>
      </trkpt>
      <trkpt lat="48.09003" lon="7.0655">
        <ele>1078</ele>
        <time>2021-12-19T15:56:28Z</time>
      </trkpt>
      <trkpt lat="48.09033" lon="7.06489">
        <ele>1081</ele>
        <time>2021-12-19T15:56:33Z</time>
      </trkpt>
      <trkpt lat="48.09044" lon="7.06453">
        <ele>1087</ele>
        <time>2021-12-19T15:56:38Z</time>
      </trkpt>
      <trkpt lat="48.09024" lon="7.06401">
        <ele>1083</ele>
        <time>2021-12-19T15:56:43Z</time>
      </trkpt>
      <trkpt lat="48.09018" lon="7.06378">
        <ele>1086</ele>
        <time>2021-12-19T15:56:48Z</time>
      </trkpt>
      <trkpt lat="48.09018" lon="7.06359">
        <ele>1090</ele>
        <time>2021-12-19T15:56:53Z</time>
      </trkpt>
      <trkpt lat="48.09005" lon="7.06326">
        <ele>1091</ele>
        <time>2021-12-19T15:56:58Z</time>
      </trkpt>
      <trkpt lat="48.08981" lon="7.063">
        <ele>1091</ele>
        <time>2021-12-19T15:57:03Z</time>
      </trkpt>
      <trkpt lat="48.08953" lon="7.06278">
        <ele>1090</ele>
        <time>2021-12-19T15:57:08Z</time>
      </trkpt>
      <trkpt lat="48.0893" lon="7.06258">
        <ele>1090</ele>
        <time>2021-12-19T15:57:13Z</time>
      </trkpt>
      <trkpt lat="48.08905" lon="7.06245">
        <ele>1088</ele>
        <time>2021-12-19T15:57:18Z</time>
      </trkpt>
      <trkpt lat="48.0888" lon="7.06256">
        <ele>1079</ele>
        <time>2021-12-19T15:57:23Z</time>
      </trkpt>
      <trkpt lat="48.08862" lon="7.06232">
        <ele>1082</ele>
        <time>2021-12-19T15:57:28Z</time>
      </trkpt>
      <trkpt lat="48.0885" lon="7.06218">
        <ele>1083</ele>
        <time>2021-12-19T15:57:33Z</time>
      </trkpt>
      <trkpt lat="48.08828" lon="7.06207">
        <ele>1083</ele>
        <time>2021-12-19T15:57:38Z</time>
      </trkpt>
      <trkpt lat="48.08808" lon="7.06181">
        <ele>1093</ele>
        <time>2021-12-19T15:57:43Z</time>
      </trkpt>
      <trkpt lat="48.08784" lon="7.06191">
        <ele>1090</ele>
        <time>2021-12-19T15:57:48Z</time>
      </trkpt>
      <trkpt lat="48.0876" lon="7.06209">
        <ele>1085</ele>
        <time>2021-12-19T15:57:53Z</time>
      </trkpt>
      <trkpt lat="48.08733" lon="7.06227">
        <ele>1079</ele>
        <time>2021-12-19T15:57:58Z</time>
      </trkpt>
      <trkpt lat="48.08712" lon="7.06248">
        <ele>1073</ele>
        <time>2021-12-19T15:58:03Z</time>
      </trkpt>
      <trkpt lat="48.08694" lon="7.06284">
        <ele>1066</ele>
        <time>2021-12-19T15:58:08Z</time>
      </trkpt>
      <trkpt lat="48.08678" lon="7.06304">
        <ele>1062</ele>
        <time>2021-12-19T15:58:13Z</time>
      </trkpt>
      <trkpt lat="48.08659" lon="7.06302">
        <ele>1063</ele>
        <time>2021-12-19T15:58:18Z</time>
      </trkpt>
      <trkpt lat="48.08639" lon="7.06301">
        <ele>1061</ele>
        <time>2021-12-19T15:58:23Z</time>
      </trkpt>
      <trkpt lat="48.08621" lon="7.06313">
        <ele>1057</ele>
        <time>2021-12-19T15:58:28Z</time>
      </trkpt>
      <trkpt lat="48.08613" lon="7.06304">
        <ele>1058</ele>
        <time>2021-12-19T15:58:33Z</time>
      </trkpt>
      <trkpt lat="48.08604" lon="7.06262">
        <ele>1062</ele>
        <time>2021-12-19T15:58:38Z</time>
      </trkpt>
      <trkpt lat="48.08599" lon="7.06215">
        <ele>1068</ele>
        <time>2021-12-19T15:58:43Z</time>
      </trkpt>
      <trkpt lat="48.08588" lon="7.06184">
        <ele>1070</ele>
        <time>2021-12-19T15:58:48Z</time>
      </trkpt>
      <trkpt lat="48.08565" lon="7.06136">
        <ele>1072</ele>
        <time>2021-12-19T15:58:53Z</time>
      </trkpt>
      <trkpt lat="48.08548" lon="7.06097">
        <ele>1073</ele>
        <time>2021-12-19T15:58:58Z</time>
      </trkpt>
      <trkpt lat="48.08546" lon="7.06068">
        <ele>1077</ele>
        <time>2021-12-19T15:59:03Z</time>
      </trkpt>
      <trkpt lat="48.08586" lon="7.06101">
        <ele>1085</ele>
        <time>2021-12-19T15:59:08Z</time>
      </trkpt>
      <trkpt lat="48.08606" lon="7.06122">
        <ele>1087</ele>
        <time>2021-12-19T15:59:13Z</time>
      </trkpt>
      <trkpt lat="48.08642" lon="7.0614">
        <ele>1095</ele>
        <time>2021-12-19T15:59:18Z</time>
      </trkpt>
      <trkpt lat="48.08668" lon="7.0617">
        <ele>1096</ele>
        <time>2021-12-19T15:59:23Z</time>
      </trkpt>
      <trkpt lat="48.08683" lon="7.06172">
        <ele>1096</ele>
        <time>2021-12-19T15:59:28Z</time>
      </trkpt>
      <trkpt lat="48.08699" lon="7.0617">
        <ele>1097</ele>
        <time>2021-12-19T15:59:33Z</time>
      </trkpt>
      <trkpt lat="48.08722" lon="7.06145">
        <ele>1105</ele>
        <time>2021-12-19T15:59:38Z</time>
      </trkpt>
      <trkpt lat="48.08721" lon="7.0613">
        <ele>1110</ele>
        <time>2021-12-19T15:59:43Z</time>
      </trkpt>
      <trkpt lat="48.08699" lon="7.06126">
        <ele>1109</ele>
        <time>2021-12-19T15:59:48Z</time>
      </trkpt>
      <trkpt lat="48.08672" lon="7.06055">
        <ele>1122</ele>
        <time>2021-12-19T15:59:53Z</time>
      </trkpt>
      <trkpt lat="48.0867" lon="7.06025">
        <ele>1126</ele>
        <time>2021-12-19T15:59:58Z</time>
      </trkpt>
      <trkpt lat="48.08668" lon="7.05996">
        <ele>1130</ele>
        <time>2021-12-19T16:00:03Z</time>
      </trkpt>
      <trkpt lat="48.0871" lon="7.06033">
        <ele>1134</ele>
        <time>2021-12-19T16:00:08Z</time>
      </trkpt>
      <trkpt lat="48.08749" lon="7.06055">
        <ele>1138</ele>
        <time>2021-12-19T16:00:13Z</time>
      </trkpt>
      <trkpt lat="48.08785" lon="7.06032">
        <ele>1145</ele>
        <time>2021-12-19T16:00:18Z</time>
      </trkpt>
      <trkpt lat="48.08811" lon="7.05996">
        <ele>1158</ele>
        <time>2021-12-19T16:00:23Z</time>
      </trkpt>
      <trkpt lat="48.08867" lon="7.05988">
        <ele>1162</ele>
        <time>2021-12-19T16:00:28Z</time>
      </trkpt>
      <trkpt lat="48.08894" lon="7.05983">
        <ele>1164</ele>
        <time>2021-12-19T16:00:33Z</time>
      </trkpt>
      <trkpt lat="48.0893" lon="7.05981">
        <ele>1166</ele>
        <time>2021-12-19T16:00:38Z</time>
      </trkpt>
      <trkpt lat="48.08947" lon="7.05986">
        <ele>1165</ele>
        <time>2021-12-19T16:00:43Z</time>
      </trkpt>
      <trkpt lat="48.08972" lon="7.05964">
        <ele>1175</ele>
        <time>2021-12-19T16:00:48Z</time>
      </trkpt>
      <trkpt lat="48.08995" lon="7.05951">
        <ele>1181</ele>
        <time>2021-12-19T16:00:53Z</time>
      </trkpt>
      <trkpt lat="48.09023" lon="7.05957">
        <ele>1187</ele>
        <time>2021-12-19T16:00:58Z</time>
      </trkpt>
      <trkpt lat="48.09058" lon="7.05972">
        <ele>1194</ele>
        <time>2021-12-19T16:01:03Z</time>
      </trkpt>
      <trkpt lat="48.09096" lon="7.06003">
        <ele>1200</ele>
        <time>2021-12-19T16:01:08Z</time>
      </trkpt>
      <trkpt lat="48.09076" lon="7.05938">
        <ele>1209</ele>
        <time>2021-12-19T16:01:13Z</time>
      </trkpt>
      <trkpt lat="48.0905" lon="7.05884">
        <ele>1214</ele>
        <time>2021-12-19T16:01:18Z</time>
      </trkpt>
      <trkpt lat="48.09057" lon="7.0587">
        <ele>1218</ele>
        <time>2021-12-19T16:01:23Z</time>
      </trkpt>
      <trkpt lat="48.09059" lon="7.05846">
        <ele>1223</ele>
        <time>2021-12-19T16:01:28Z</time>
      </trkpt>
      <trkpt lat="48.09194" lon="7.05982">
        <ele>1229</ele>
        <time>2021-12-19T16:01:33Z</time>
      </trkpt>
      <trkpt lat="48.09292" lon="7.06063">
        <ele>1229</ele>
        <time>2021-12-19T16:01:38Z</time>
      </trkpt>
      <trkpt lat="48.09333" lon="7.06122">
        <ele>1228</ele>
        <time>2021-12-19T16:01:43Z</time>
      </trkpt>
      <trkpt lat="48.09394" lon="7.06166">
        <ele>1228</ele>
        <time>2021-12-19T16:01:48Z</time>
      </trkpt>
      <trkpt lat="48.09523" lon="7.06238">
        <ele>1242</ele>
        <time>2021-12-19T16:01:53Z</time>
      </trkpt>
      <trkpt lat="48.09617" lon="7.06292">
        <ele>1257</ele>
        <time>2021-12-19T16:01:58Z</time>
      </trkpt>
      <trkpt lat="48.09759" lon="7.06393">
        <ele>1284</ele>
        <time>2021-12-19T16:02:03Z</time>
      </trkpt>
      <trkpt lat="48.09883" lon="7.06485">
        <ele>1295</ele>
        <time>2021-12-19T16:02:08Z</time>
      </trkpt>
      <trkpt lat="48.1001" lon="7.06626">
        <ele>1292</ele>
        <time>2021-12-19T16:02:13Z</time>
      </trkpt>
      <trkpt lat="48.10088" lon="7.06741">
        <ele>1297</ele>
        <time>2021-12-19T16:02:18Z</time>
      </trkpt>
      <trkpt lat="48.10154" lon="7.06787">
        <ele>1292</ele>
        <time>2021-12-19T16:02:23Z</time>
      </trkpt>
      <trkpt lat="48.10205" lon="7.06816">
        <ele>1291</ele>
        <time>2021-12-19T16:02:28Z</time>
      </trkpt>
      <trkpt lat="48.10254" lon="7.06833">
        <ele>1293</ele>
        <time>2021-12-19T16:02:33Z</time>
      </trkpt>
      <trkpt lat="48.10326" lon="7.06817">
        <ele>1284</ele>
        <time>2021-12-19T16:02:38Z</time>
      </trkpt>
      <trkpt lat="48.1038" lon="7.06819">
        <ele>1281</ele>
        <time>2021-12-19T16:02:43Z</time>
      </trkpt>
      <trkpt lat="48.1042" lon="7.0684">
        <ele>1278</ele>
        <time>2021-12-19T16:02:48Z</time>
      </trkpt>
      <trkpt lat="48.10524" lon="7.06935">
        <ele>1275</ele>
        <time>2021-12-19T16:02:53Z</time>
      </trkpt>
      <trkpt lat="48.10639" lon="7.07014">
        <ele>1285</ele>
        <time>2021-12-19T16:02:58Z</time>
      </trkpt>
      <trkpt lat="48.10704" lon="7.07091">
        <ele>1281</ele>
        <time>2021-12-19T16:03:03Z</time>
      </trkpt>
      <trkpt lat="48.10762" lon="7.07129">
        <ele>1282</ele>
        <time>2021-12-19T16:03:08Z</time>
      </trkpt>
      <trkpt lat="48.10783" lon="7.07159">
        <ele>1279</ele>
        <time>2021-12-19T16:03:13Z</time>
      </trkpt>
      <trkpt lat="48.10817" lon="7.07259">
        <ele>1267</ele>
        <time>2021-12-19T16:03:18Z</time>
      </trkpt>
      <trkpt lat="48.1084" lon="7.07384">
        <ele>1275</ele>
        <time>2021-12-19T16:03:23Z</time>
      </trkpt>
      <trkpt lat="48.10856" lon="7.07543">
        <ele>1288</ele>
        <time>2021-12-19T16:03:28Z</time>
      </trkpt>
      <trkpt lat="48.10868" lon="7.07673">
        <ele>1297</ele>
        <time>2021-12-19T16:03:33Z</time>
      </trkpt>
      <trkpt lat="48.10894" lon="7.07703">
        <ele>1295</ele>
        <time>2021-12-19T16:03:38Z</time>
      </trkpt>
      <trkpt lat="48.10923" lon="7.07708">
        <ele>1294</ele>
        <time>2021-12-19T16:03:43Z</time>
      </trkpt>
      <trkpt lat="48.11076" lon="7.07787">
        <ele>1289</ele>
        <time>2021-12-19T16:03:48Z</time>
      </trkpt>
      <trkpt lat="48.11149" lon="7.07809">
        <ele>1290</ele>
        <time>2021-12-19T16:03:53Z</time>
      </trkpt>
      <trkpt lat="48.11388" lon="7.07934">
        <ele>1301</ele>
        <time>2021-12-19T16:03:58Z</time>
      </trkpt>
      <trkpt lat="48.11439" lon="7.07952">
        <ele>1299</ele>
        <time>2021-12-19T16:04:03Z</time>
      </trkpt>
      <trkpt lat="48.11551" lon="7.08005">
        <ele>1295</ele>
        <time>2021-12-19T16:04:08Z</time>
      </trkpt>
      <trkpt lat="48.11591" lon="7.08012">
        <ele>1293</ele>
        <time>2021-12-19T16:04:13Z</time>
      </trkpt>
      <trkpt lat="48.11629" lon="7.08035">
        <ele>1293</ele>
        <time>2021-12-19T16:04:18Z</time>
      </trkpt>
      <trkpt lat="48.11673" lon="7.08079">
        <ele>1294</ele>
        <time>2021-12-19T16:04:23Z</time>
      </trkpt>
      <trkpt lat="48.11769" lon="7.08144">
        <ele>1298</ele>
        <time>2021-12-19T16:04:28Z</time>
      </trkpt>
      <trkpt lat="48.11812" lon="7.08163">
        <ele>1297</ele>
        <time>2021-12-19T16:04:33Z</time>
      </trkpt>
      <trkpt lat="48.11864" lon="7.08174">
        <ele>1297</ele>
        <time>2021-12-19T16:04:38Z</time>
      </trkpt>
      <trkpt lat="48.11909" lon="7.08206">
        <ele>1298</ele>
        <time>2021-12-19T16:04:43Z</time>
      </trkpt>
      <trkpt lat="48.11949" lon="7.08216">
        <ele>1297</ele>
        <time>2021-12-19T16:04:48Z</time>
      </trkpt>
      <trkpt lat="48.11978" lon="7.08233">
        <ele>1296</ele>
        <time>2021-12-19T16:04:53Z</time>
      </trkpt>
      <trkpt lat="48.11998" lon="7.08236">
        <ele>1296</ele>
        <time>2021-12-19T16:04:58Z</time>
      </trkpt>
      <trkpt lat="48.1201" lon="7.08261">
        <ele>1296</ele>
        <time>2021-12-19T16:05:03Z</time>
      </trkpt>
      <trkpt lat="48.12091" lon="7.08304">
        <ele>1292</ele>
        <time>2021-12-19T16:05:08Z</time>
      </trkpt>
      <trkpt lat="48.12117" lon="7.08313">
        <ele>1290</ele>
        <time>2021-12-19T16:05:13Z</time>
      </trkpt>
      <trkpt lat="48.12174" lon="7.08317">
        <ele>1287</ele>
        <time>2021-12-19T16:05:18Z</time>
      </trkpt>
      <trkpt lat="48.122" lon="7.08316">
        <ele>1284</ele>
        <time>2021-12-19T16:05:23Z</time>
      </trkpt>
      <trkpt lat="48.12245" lon="7.08332">
        <ele>1280</ele>
        <time>2021-12-19T16:05:28Z</time>
      </trkpt>
      <trkpt lat="48.12284" lon="7.08339">
        <ele>1276</ele>
        <time>2021-12-19T16:05:33Z</time>
      </trkpt>
      <trkpt lat="48.12295" lon="7.08353">
        <ele>1276</ele>
        <time>2021-12-19T16:05:38Z</time>
      </trkpt>
      <trkpt lat="48.12312" lon="7.08347">
        <ele>1274</ele>
        <time>2021-12-19T16:05:43Z</time>
      </trkpt>
      <trkpt lat="48.12339" lon="7.0835">
        <ele>1272</ele>
        <time>2021-12-19T16:05:48Z</time>
      </trkpt>
      <trkpt lat="48.12359" lon="7.08353">
        <ele>1270</ele>
        <time>2021-12-19T16:05:53Z</time>
      </trkpt>
      <trkpt lat="48.12371" lon="7.08344">
        <ele>1268</ele>
        <time>2021-12-19T16:05:58Z</time>
      </trkpt>
      <trkpt lat="48.12391" lon="7.08351">
        <ele>1266</ele>
        <time>2021-12-19T16:06:03Z</time>
      </trkpt>
      <trkpt lat="48.12402" lon="7.0836">
        <ele>1265</ele>
        <time>2021-12-19T16:06:08Z</time>
      </trkpt>
      <trkpt lat="48.12418" lon="7.08361">
        <ele>1263</ele>
        <time>2021-12-19T16:06:13Z</time>
      </trkpt>
      <trkpt lat="48.12432" lon="7.08383">
        <ele>1262</ele>
        <time>2021-12-19T16:06:18Z</time>
      </trkpt>
      <trkpt lat="48.12455" lon="7.08382">
        <ele>1259</ele>
        <time>2021-12-19T16:06:23Z</time>
      </trkpt>
      <trkpt lat="48.12484" lon="7.08412">
        <ele>1255</ele>
        <time>2021-12-19T16:06:28Z</time>
      </trkpt>
      <trkpt lat="48.12536" lon="7.08406">
        <ele>1251</ele>
        <time>2021-12-19T16:06:33Z</time>
      </trkpt>
      <trkpt lat="48.1255" lon="7.08394">
        <ele>1250</ele>
        <time>2021-12-19T16:06:38Z</time>
      </trkpt>
      <trkpt lat="48.12571" lon="7.08401">
        <ele>1250</ele>
        <time>2021-12-19T16:06:43Z</time>
      </trkpt>
      <trkpt lat="48.12584" lon="7.08391">
        <ele>1248</ele>
        <time>2021-12-19T16:06:48Z</time>
      </trkpt>
      <trkpt lat="48.1262" lon="7.084">
        <ele>1246</ele>
        <time>2021-12-19T16:06:53Z</time>
      </trkpt>
      <trkpt lat="48.12655" lon="7.08385">
        <ele>1242</ele>
        <time>2021-12-19T16:06:58Z</time>
      </trkpt>
      <trkpt lat="48.12707" lon="7.08403">
        <ele>1239</ele>
        <time>2021-12-19T16:07:03Z</time>
      </trkpt>
      <trkpt lat="48.12718" lon="7.08401">
        <ele>1239</ele>
        <time>2021-12-19T16:07:08Z</time>
      </trkpt>
      <trkpt lat="48.12733" lon="7.08383">
        <ele>1237</ele>
        <time>2021-12-19T16:07:13Z</time>
      </trkpt>
      <trkpt lat="48.12752" lon="7.0838">
        <ele>1236</ele>
        <time>2021-12-19T16:07:18Z</time>
      </trkpt>
      <trkpt lat="48.12775" lon="7.08383">
        <ele>1236</ele>
        <time>2021-12-19T16:07:23Z</time>
      </trkpt>
      <trkpt lat="48.1279" lon="7.0839">
        <ele>1236</ele>
        <time>2021-12-19T16:07:28Z</time>
      </trkpt>
      <trkpt lat="48.12812" lon="7.08395">
        <ele>1236</ele>
        <time>2021-12-19T16:07:33Z</time>
      </trkpt>
      <trkpt lat="48.1285" lon="7.08399">
        <ele>1236</ele>
        <time>2021-12-19T16:07:38Z</time>
      </trkpt>
      <trkpt lat="48.1287" lon="7.08415">
        <ele>1236</ele>
        <time>2021-12-19T16:07:43Z</time>
      </trkpt>
      <trkpt lat="48.12908" lon="7.08401">
        <ele>1234</ele>
        <time>2021-12-19T16:07:48Z</time>
      </trkpt>
      <trkpt lat="48.12927" lon="7.08408">
        <ele>1234</ele>
        <time>2021-12-19T16:07:53Z</time>
      </trkpt>
      <trkpt lat="48.13007" lon="7.08459">
        <ele>1228</ele>
        <time>2021-12-19T16:07:58Z</time>
      </trkpt>
      <trkpt lat="48.13061" lon="7.08509">
        <ele>1217</ele>
        <time>2021-12-19T16:08:03Z</time>
      </trkpt>
      <trkpt lat="48.13126" lon="7.08513">
        <ele>1215</ele>
        <time>2021-12-19T16:08:08Z</time>
      </trkpt>
      <trkpt lat="48.13166" lon="7.0852">
        <ele>1212</ele>
        <time>2021-12-19T16:08:13Z</time>
      </trkpt>
      <trkpt lat="48.13214" lon="7.08543">
        <ele>1202</ele>
        <time>2021-12-19T16:08:18Z</time>
      </trkpt>
      <trkpt lat="48.13241" lon="7.08563">
        <ele>1198</ele>
        <time>2021-12-19T16:08:23Z</time>
      </trkpt>
      <trkpt lat="48.1326" lon="7.08586">
        <ele>1194</ele>
        <time>2021-12-19T16:08:28Z</time>
      </trkpt>
      <trkpt lat="48.13282" lon="7.08611">
        <ele>1189</ele>
        <time>2021-12-19T16:08:33Z</time>
      </trkpt>
      <trkpt lat="48.13291" lon="7.08636">
        <ele>1185</ele>
        <time>2021-12-19T16:08:38Z</time>
      </trkpt>
      <trkpt lat="48.13271" lon="7.08641">
        <ele>1183</ele>
        <time>2021-12-19T16:08:43Z</time>
      </trkpt>
      <trkpt lat="48.13276" lon="7.08684">
        <ele>1174</ele>
        <time>2021-12-19T16:08:48Z</time>
      </trkpt>
      <trkpt lat="48.13295" lon="7.08735">
        <ele>1165</ele>
        <time>2021-12-19T16:08:53Z</time>
      </trkpt>
      <trkpt lat="48.13293" lon="7.08788">
        <ele>1153</ele>
        <time>2021-12-19T16:08:58Z</time>
      </trkpt>
      <trkpt lat="48.13281" lon="7.08809">
        <ele>1144</ele>
        <time>2021-12-19T16:09:03Z</time>
      </trkpt>
      <trkpt lat="48.1327" lon="7.08786">
        <ele>1147</ele>
        <time>2021-12-19T16:09:08Z</time>
      </trkpt>
      <trkpt lat="48.13253" lon="7.08795">
        <ele>1139</ele>
        <time>2021-12-19T16:09:13Z</time>
      </trkpt>
      <trkpt lat="48.13259" lon="7.08823">
        <ele>1134</ele>
        <time>2021-12-19T16:09:18Z</time>
      </trkpt>
      <trkpt lat="48.13291" lon="7.08894">
        <ele>1123</ele>
        <time>2021-12-19T16:09:23Z</time>
      </trkpt>
      <trkpt lat="48.13306" lon="7.08916">
        <ele>1120</ele>
        <time>2021-12-19T16:09:28Z</time>
      </trkpt>
      <trkpt lat="48.13258" lon="7.08898">
        <ele>1115</ele>
        <time>2021-12-19T16:09:33Z</time>
      </trkpt>
      <trkpt lat="48.13214" lon="7.08872">
        <ele>1106</ele>
        <time>2021-12-19T16:09:38Z</time>
      </trkpt>
      <trkpt lat="48.13195" lon="7.08866">
        <ele>1100</ele>
        <time>2021-12-19T16:09:43Z</time>
      </trkpt>
      <trkpt lat="48.1318" lon="7.08854">
        <ele>1097</ele>
        <time>2021-12-19T16:09:48Z</time>
      </trkpt>
      <trkpt lat="48.13141" lon="7.08863">
        <ele>1082</ele>
        <time>2021-12-19T16:09:53Z</time>
      </trkpt>
      <trkpt lat="48.13147" lon="7.08889">
        <ele>1079</ele>
        <time>2021-12-19T16:09:58Z</time>
      </trkpt>
      <trkpt lat="48.13113" lon="7.08877">
        <ele>1072</ele>
        <time>2021-12-19T16:10:03Z</time>
      </trkpt>
      <trkpt lat="48.1312" lon="7.08928">
        <ele>1068</ele>
        <time>2021-12-19T16:10:08Z</time>
      </trkpt>
      <trkpt lat="48.13106" lon="7.08979">
        <ele>1069</ele>
        <time>2021-12-19T16:10:13Z</time>
      </trkpt>
      <trkpt lat="48.13095" lon="7.09029">
        <ele>1074</ele>
        <time>2021-12-19T16:10:18Z</time>
      </trkpt>
      <trkpt lat="48.13088" lon="7.0906">
        <ele>1078</ele>
        <time>2021-12-19T16:10:23Z</time>
      </trkpt>
      <trkpt lat="48.13073" lon="7.09075">
        <ele>1080</ele>
        <time>2021-12-19T16:10:28Z</time>
      </trkpt>
      <trkpt lat="48.13055" lon="7.09091">
        <ele>1081</ele>
        <time>2021-12-19T16:10:33Z</time>
      </trkpt>
      <trkpt lat="48.13039" lon="7.09101">
        <ele>1082</ele>
        <time>2021-12-19T16:10:38Z</time>
      </trkpt>
      <trkpt lat="48.13033" lon="7.0911">
        <ele>1083</ele>
        <time>2021-12-19T16:10:43Z</time>
      </trkpt>
      <trkpt lat="48.13014" lon="7.09117">
        <ele>1084</ele>
        <time>2021-12-19T16:10:48Z</time>
      </trkpt>
      <trkpt lat="48.12997" lon="7.09117">
        <ele>1082</ele>
        <time>2021-12-19T16:10:53Z</time>
      </trkpt>
      <trkpt lat="48.12982" lon="7.09123">
        <ele>1082</ele>
        <time>2021-12-19T16:10:58Z</time>
      </trkpt>
      <trkpt lat="48.12965" lon="7.09125">
        <ele>1081</ele>
        <time>2021-12-19T16:11:03Z</time>
      </trkpt>
      <trkpt lat="48.12947" lon="7.09141">
        <ele>1083</ele>
        <time>2021-12-19T16:11:08Z</time>
      </trkpt>
      <trkpt lat="48.1292" lon="7.09145">
        <ele>1080</ele>
        <time>2021-12-19T16:11:13Z</time>
      </trkpt>
      <trkpt lat="48.12905" lon="7.09147">
        <ele>1078</ele>
        <time>2021-12-19T16:11:18Z</time>
      </trkpt>
      <trkpt lat="48.12888" lon="7.09163">
        <ele>1079</ele>
        <time>2021-12-19T16:11:23Z</time>
      </trkpt>
      <trkpt lat="48.12882" lon="7.09165">
        <ele>1078</ele>
        <time>2021-12-19T16:11:28Z</time>
      </trkpt>
      <trkpt lat="48.1286" lon="7.09203">
        <ele>1080</ele>
        <time>2021-12-19T16:11:33Z</time>
      </trkpt>
      <trkpt lat="48.12831" lon="7.09215">
        <ele>1074</ele>
        <time>2021-12-19T16:11:38Z</time>
      </trkpt>
      <trkpt lat="48.12807" lon="7.09244">
        <ele>1070</ele>
        <time>2021-12-19T16:11:43Z</time>
      </trkpt>
      <trkpt lat="48.1279" lon="7.09265">
        <ele>1069</ele>
        <time>2021-12-19T16:11:48Z</time>
      </trkpt>
      <trkpt lat="48.12776" lon="7.09285">
        <ele>1069</ele>
        <time>2021-12-19T16:11:53Z</time>
      </trkpt>
      <trkpt lat="48.12751" lon="7.09326">
        <ele>1072</ele>
        <time>2021-12-19T16:11:58Z</time>
      </trkpt>
      <trkpt lat="48.12741" lon="7.09347">
        <ele>1073</ele>
        <time>2021-12-19T16:12:03Z</time>
      </trkpt>
      <trkpt lat="48.12725" lon="7.09359">
        <ele>1072</ele>
        <time>2021-12-19T16:12:08Z</time>
      </trkpt>
      <trkpt lat="48.12715" lon="7.09381">
        <ele>1073</ele>
        <time>2021-12-19T16:12:13Z</time>
      </trkpt>
      <trkpt lat="48.12703" lon="7.09397">
        <ele>1073</ele>
        <time>2021-12-19T16:12:18Z</time>
      </trkpt>
      <trkpt lat="48.12692" lon="7.09423">
        <ele>1074</ele>
        <time>2021-12-19T16:12:23Z</time>
      </trkpt>
      <trkpt lat="48.12687" lon="7.09434">
        <ele>1075</ele>
        <time>2021-12-19T16:12:28Z</time>
      </trkpt>
      <trkpt lat="48.12635" lon="7.09487">
        <ele>1072</ele>
        <time>2021-12-19T16:12:33Z</time>
      </trkpt>
      <trkpt lat="48.12613" lon="7.09507">
        <ele>1070</ele>
        <time>2021-12-19T16:12:38Z</time>
      </trkpt>
      <trkpt lat="48.1259" lon="7.0954">
        <ele>1067</ele>
        <time>2021-12-19T16:12:43Z</time>
      </trkpt>
      <trkpt lat="48.12568" lon="7.09571">
        <ele>1066</ele>
        <time>2021-12-19T16:12:48Z</time>
      </trkpt>
      <trkpt lat="48.12523" lon="7.09599">
        <ele>1060</ele>
        <time>2021-12-19T16:12:53Z</time>
      </trkpt>
      <trkpt lat="48.1249" lon="7.09611">
        <ele>1061</ele>
        <time>2021-12-19T16:12:58Z</time>
      </trkpt>
      <trkpt lat="48.12483" lon="7.09616">
        <ele>1064</ele>
        <time>2021-12-19T15:39:58Z</time>
      </trkpt>
      <trkpt lat="48.12479" lon="7.09647">
        <ele>1066</ele>
        <time>2021-12-19T15:40:03Z</time>
      </trkpt>
      <trkpt lat="48.12462" lon="7.09643">
        <ele>1072</ele>
        <time>2021-12-19T15:40:08Z</time>
      </trkpt>
      <trkpt lat="48.12449" lon="7.09632">
        <ele>1077</ele>
        <time>2021-12-19T15:40:13Z</time>
      </trkpt>
      <trkpt lat="48.12452" lon="7.09611">
        <ele>1076</ele>
        <time>2021-12-19T15:40:18Z</time>
      </trkpt>
      <trkpt lat="48.12448" lon="7.09595">
        <ele>1078</ele>
        <time>2021-12-19T15:40:23Z</time>
      </trkpt>
      <trkpt lat="48.12424" lon="7.09609">
        <ele>1087</ele>
        <time>2021-12-19T15:40:28Z</time>
      </trkpt>
      <trkpt lat="48.12417" lon="7.09585">
        <ele>1091</ele>
        <time>2021-12-19T15:40:33Z</time>
      </trkpt>
      <trkpt lat="48.12406" lon="7.09588">
        <ele>1095</ele>
        <time>2021-12-19T15:40:38Z</time>
      </trkpt>
      <trkpt lat="48.12391" lon="7.09611">
        <ele>1098</ele>
        <time>2021-12-19T15:40:43Z</time>
      </trkpt>
      <trkpt lat="48.12363" lon="7.09608">
        <ele>1108</ele>
        <time>2021-12-19T15:40:48Z</time>
      </trkpt>
      <trkpt lat="48.12361" lon="7.09593">
        <ele>1113</ele>
        <time>2021-12-19T15:40:53Z</time>
      </trkpt>
      <trkpt lat="48.12361" lon="7.09562">
        <ele>1116</ele>
        <time>2021-12-19T15:40:58Z</time>
      </trkpt>
      <trkpt lat="48.12365" lon="7.09547">
        <ele>1115</ele>
        <time>2021-12-19T15:41:03Z</time>
      </trkpt>
      <trkpt lat="48.12357" lon="7.09514">
        <ele>1121</ele>
        <time>2021-12-19T15:41:08Z</time>
      </trkpt>
      <trkpt lat="48.12345" lon="7.09497">
        <ele>1130</ele>
        <time>2021-12-19T15:41:13Z</time>
      </trkpt>
      <trkpt lat="48.12348" lon="7.09474">
        <ele>1128</ele>
        <time>2021-12-19T15:41:18Z</time>
      </trkpt>
      <trkpt lat="48.12342" lon="7.09445">
        <ele>1131</ele>
        <time>2021-12-19T15:41:23Z</time>
      </trkpt>
      <trkpt lat="48.12334" lon="7.09433">
        <ele>1137</ele>
        <time>2021-12-19T15:41:28Z</time>
      </trkpt>
      <trkpt lat="48.12327" lon="7.09413">
        <ele>1140</ele>
        <time>2021-12-19T15:41:33Z</time>
      </trkpt>
      <trkpt lat="48.12319" lon="7.09393">
        <ele>1140</ele>
        <time>2021-12-19T15:41:38Z</time>
      </trkpt>
      <trkpt lat="48.12307" lon="7.09367">
        <ele>1144</ele>
        <time>2021-12-19T15:41:43Z</time>
      </trkpt>
      <trkpt lat="48.12305" lon="7.0934">
        <ele>1143</ele>
        <time>2021-12-19T15:41:48Z</time>
      </trkpt>
      <trkpt lat="48.123" lon="7.09325">
        <ele>1143</ele>
        <time>2021-12-19T15:41:53Z</time>
      </trkpt>
      <trkpt lat="48.12281" lon="7.09339">
        <ele>1163</ele>
        <time>2021-12-19T15:41:58Z</time>
      </trkpt>
      <trkpt lat="48.12274" lon="7.09369">
        <ele>1169</ele>
        <time>2021-12-19T15:42:03Z</time>
      </trkpt>
      <trkpt lat="48.12255" lon="7.09367">
        <ele>1183</ele>
        <time>2021-12-19T15:42:08Z</time>
      </trkpt>
      <trkpt lat="48.12237" lon="7.09348">
        <ele>1193</ele>
        <time>2021-12-19T15:42:13Z</time>
      </trkpt>
      <trkpt lat="48.12222" lon="7.09339">
        <ele>1200</ele>
        <time>2021-12-19T15:42:18Z</time>
      </trkpt>
      <trkpt lat="48.12212" lon="7.09338">
        <ele>1205</ele>
        <time>2021-12-19T15:42:23Z</time>
      </trkpt>
      <trkpt lat="48.12198" lon="7.09323">
        <ele>1211</ele>
        <time>2021-12-19T15:42:28Z</time>
      </trkpt>
      <trkpt lat="48.12188" lon="7.09301">
        <ele>1215</ele>
        <time>2021-12-19T15:42:33Z</time>
      </trkpt>
      <trkpt lat="48.1217" lon="7.09282">
        <ele>1225</ele>
        <time>2021-12-19T15:42:38Z</time>
      </trkpt>
      <trkpt lat="48.12157" lon="7.09287">
        <ele>1229</ele>
        <time>2021-12-19T15:42:43Z</time>
      </trkpt>
      <trkpt lat="48.12136" lon="7.09311">
        <ele>1234</ele>
        <time>2021-12-19T15:42:48Z</time>
      </trkpt>
      <trkpt lat="48.12108" lon="7.09346">
        <ele>1238</ele>
        <time>2021-12-19T15:42:53Z</time>
      </trkpt>
      <trkpt lat="48.12087" lon="7.09368">
        <ele>1240</ele>
        <time>2021-12-19T15:42:58Z</time>
      </trkpt>
      <trkpt lat="48.1207" lon="7.09396">
        <ele>1237</ele>
        <time>2021-12-19T15:43:03Z</time>
      </trkpt>
      <trkpt lat="48.12062" lon="7.09412">
        <ele>1236</ele>
        <time>2021-12-19T15:43:08Z</time>
      </trkpt>
      <trkpt lat="48.12047" lon="7.09432">
        <ele>1233</ele>
        <time>2021-12-19T15:43:13Z</time>
      </trkpt>
      <trkpt lat="48.12022" lon="7.09465">
        <ele>1231</ele>
        <time>2021-12-19T15:43:18Z</time>
      </trkpt>
      <trkpt lat="48.12001" lon="7.09473">
        <ele>1235</ele>
        <time>2021-12-19T15:43:23Z</time>
      </trkpt>
      <trkpt lat="48.11988" lon="7.09498">
        <ele>1228</ele>
        <time>2021-12-19T15:43:28Z</time>
      </trkpt>
      <trkpt lat="48.1197" lon="7.09494">
        <ele>1223</ele>
        <time>2021-12-19T15:43:33Z</time>
      </trkpt>
      <trkpt lat="48.11952" lon="7.0946">
        <ele>1223</ele>
        <time>2021-12-19T15:43:38Z</time>
      </trkpt>
      <trkpt lat="48.11932" lon="7.09446">
        <ele>1219</ele>
        <time>2021-12-19T15:43:43Z</time>
      </trkpt>
      <trkpt lat="48.11915" lon="7.09424">
        <ele>1218</ele>
        <time>2021-12-19T15:43:48Z</time>
      </trkpt>
      <trkpt lat="48.11921" lon="7.09517">
        <ele>1203</ele>
        <time>2021-12-19T15:43:53Z</time>
      </trkpt>
      <trkpt lat="48.11924" lon="7.09571">
        <ele>1191</ele>
        <time>2021-12-19T15:43:58Z</time>
      </trkpt>
      <trkpt lat="48.1193" lon="7.09623">
        <ele>1184</ele>
        <time>2021-12-19T15:44:03Z</time>
      </trkpt>
      <trkpt lat="48.11932" lon="7.09675">
        <ele>1176</ele>
        <time>2021-12-19T15:44:08Z</time>
      </trkpt>
      <trkpt lat="48.11936" lon="7.09716">
        <ele>1171</ele>
        <time>2021-12-19T15:44:13Z</time>
      </trkpt>
      <trkpt lat="48.11935" lon="7.0974">
        <ele>1168</ele>
        <time>2021-12-19T15:44:18Z</time>
      </trkpt>
      <trkpt lat="48.11939" lon="7.0976">
        <ele>1165</ele>
        <time>2021-12-19T15:44:23Z</time>
      </trkpt>
      <trkpt lat="48.11949" lon="7.09779">
        <ele>1162</ele>
        <time>2021-12-19T15:44:28Z</time>
      </trkpt>
      <trkpt lat="48.11956" lon="7.09812">
        <ele>1156</ele>
        <time>2021-12-19T15:44:33Z</time>
      </trkpt>
      <trkpt lat="48.1195" lon="7.09851">
        <ele>1151</ele>
        <time>2021-12-19T15:44:38Z</time>
      </trkpt>
      <trkpt lat="48.11965" lon="7.09913">
        <ele>1140</ele>
        <time>2021-12-19T15:44:43Z</time>
      </trkpt>
      <trkpt lat="48.11958" lon="7.09937">
        <ele>1137</ele>
        <time>2021-12-19T15:44:48Z</time>
      </trkpt>
      <trkpt lat="48.11943" lon="7.09938">
        <ele>1138</ele>
        <time>2021-12-19T15:44:53Z</time>
      </trkpt>
      <trkpt lat="48.1193" lon="7.09931">
        <ele>1140</ele>
        <time>2021-12-19T15:44:58Z</time>
      </trkpt>
      <trkpt lat="48.11898" lon="7.09879">
        <ele>1143</ele>
        <time>2021-12-19T15:45:03Z</time>
      </trkpt>
      <trkpt lat="48.11885" lon="7.09904">
        <ele>1134</ele>
        <time>2021-12-19T15:45:08Z</time>
      </trkpt>
      <trkpt lat="48.11893" lon="7.09962">
        <ele>1129</ele>
        <time>2021-12-19T15:45:13Z</time>
      </trkpt>
      <trkpt lat="48.11897" lon="7.10026">
        <ele>1122</ele>
        <time>2021-12-19T15:45:18Z</time>
      </trkpt>
      <trkpt lat="48.11907" lon="7.10063">
        <ele>1119</ele>
        <time>2021-12-19T15:45:23Z</time>
      </trkpt>
      <trkpt lat="48.11918" lon="7.10083">
        <ele>1119</ele>
        <time>2021-12-19T15:45:28Z</time>
      </trkpt>
      <trkpt lat="48.11922" lon="7.10124">
        <ele>1109</ele>
        <time>2021-12-19T15:45:33Z</time>
      </trkpt>
      <trkpt lat="48.11911" lon="7.10162">
        <ele>1100</ele>
        <time>2021-12-19T15:45:38Z</time>
      </trkpt>
      <trkpt lat="48.11902" lon="7.10171">
        <ele>1097</ele>
        <time>2021-12-19T15:45:43Z</time>
      </trkpt>
      <trkpt lat="48.1188" lon="7.1016">
        <ele>1095</ele>
        <time>2021-12-19T15:45:48Z</time>
      </trkpt>
      <trkpt lat="48.11821" lon="7.10092">
        <ele>1089</ele>
        <time>2021-12-19T15:45:53Z</time>
      </trkpt>
      <trkpt lat="48.11778" lon="7.10033">
        <ele>1081</ele>
        <time>2021-12-19T15:45:58Z</time>
      </trkpt>
      <trkpt lat="48.11733" lon="7.09981">
        <ele>1071</ele>
        <time>2021-12-19T15:46:03Z</time>
      </trkpt>
      <trkpt lat="48.11714" lon="7.09958">
        <ele>1070</ele>
        <time>2021-12-19T15:46:08Z</time>
      </trkpt>
      <trkpt lat="48.1168" lon="7.09936">
        <ele>1066</ele>
        <time>2021-12-19T15:46:13Z</time>
      </trkpt>
      <trkpt lat="48.1162" lon="7.09912">
        <ele>1056</ele>
        <time>2021-12-19T15:46:18Z</time>
      </trkpt>
      <trkpt lat="48.11552" lon="7.09933">
        <ele>1040</ele>
        <time>2021-12-19T15:46:23Z</time>
      </trkpt>
      <trkpt lat="48.11543" lon="7.09912">
        <ele>1036</ele>
        <time>2021-12-19T15:46:28Z</time>
      </trkpt>
      <trkpt lat="48.11548" lon="7.09876">
        <ele>1030</ele>
        <time>2021-12-19T15:46:33Z</time>
      </trkpt>
      <trkpt lat="48.11667" lon="7.09676">
        <ele>1016</ele>
        <time>2021-12-19T15:46:38Z</time>
      </trkpt>
      <trkpt lat="48.11365" lon="7.0991">
        <ele>969</ele>
        <time>2021-12-19T15:46:43Z</time>
      </trkpt>
      <trkpt lat="48.11342" lon="7.09939">
        <ele>966</ele>
        <time>2021-12-19T15:46:48Z</time>
      </trkpt>
      <trkpt lat="48.11303" lon="7.09956">
        <ele>960</ele>
        <time>2021-12-19T15:46:53Z</time>
      </trkpt>
    </trkseg>
  </trk>
</gpx>